createdAt,value
2022-12-02T00:00:29.304Z,87.13
2022-12-02T00:03:02.301Z,87.74
2022-12-02T00:05:33.461Z,87.65
2022-12-02T00:08:17.702Z,87.83
2022-12-02T00:10:47.683Z,87.79
2022-12-02T00:13:24.908Z,87.29
2022-12-02T00:15:57.665Z,87.18
2022-12-02T00:18:26.703Z,87.69
2022-12-02T00:20:55.825Z,87.67
2022-12-02T00:23:24.688Z,87.59
2022-12-02T00:25:55.516Z,87.24
2022-12-02T00:28:23.854Z,87.15
2022-12-02T00:30:52.314Z,87.56
2022-12-02T00:33:20.701Z,87.71
2022-12-02T00:35:49.072Z,87.76
2022-12-02T00:38:17.539Z,87.26
2022-12-02T00:40:46.070Z,87.27
2022-12-02T00:43:33.675Z,87.86
2022-12-02T00:46:19.522Z,87.67
2022-12-02T00:48:48.066Z,88.00
2022-12-02T00:51:16.396Z,87.92
2022-12-02T00:53:44.811Z,87.58
2022-12-02T00:56:13.348Z,87.46
2022-12-02T00:58:43.075Z,87.79
2022-12-02T01:01:11.649Z,87.75
2022-12-02T01:03:45.609Z,87.42
2022-12-02T01:06:14.588Z,87.47
2022-12-02T01:08:43.189Z,87.69
2022-12-02T01:11:12.236Z,87.48
2022-12-02T01:13:40.676Z,87.21
2022-12-02T01:16:10.732Z,87.23
2022-12-02T01:18:39.210Z,87.35
2022-12-02T01:21:07.741Z,87.01
2022-12-02T01:23:36.079Z,87.79
2022-12-02T01:26:04.416Z,87.69
2022-12-02T01:28:32.776Z,87.19
2022-12-02T01:31:01.109Z,87.46
2022-12-02T01:33:30.776Z,87.78
2022-12-02T01:35:59.118Z,87.55
2022-12-02T01:38:27.434Z,87.74
2022-12-02T01:40:55.847Z,87.73
2022-12-02T01:43:24.218Z,87.89
2022-12-02T01:45:53.036Z,88.02
2022-12-02T01:48:21.967Z,87.34
2022-12-02T01:50:52.175Z,87.47
2022-12-02T01:53:20.658Z,87.66
2022-12-02T01:55:49.068Z,88.07
2022-12-02T01:58:20.904Z,88.04
2022-12-02T02:00:49.235Z,87.98
2022-12-02T02:03:17.598Z,88.33
2022-12-02T02:05:46.047Z,87.98
2022-12-02T02:08:15.917Z,87.90
2022-12-02T02:10:45.742Z,87.77
2022-12-02T02:13:16.483Z,88.21
2022-12-02T02:15:46.278Z,88.04
2022-12-02T02:18:16.365Z,87.90
2022-12-02T02:20:44.940Z,88.12
2022-12-02T02:23:21.809Z,87.88
2022-12-02T02:25:54.182Z,87.98
2022-12-02T02:28:24.528Z,87.65
2022-12-02T02:30:55.071Z,87.63
2022-12-02T02:33:25.540Z,87.90
2022-12-02T02:35:55.140Z,87.65
2022-12-02T02:38:27.596Z,87.75
2022-12-02T02:40:57.428Z,87.67
2022-12-02T02:43:28.644Z,87.78
2022-12-02T02:45:58.691Z,88.14
2022-12-02T02:48:28.314Z,87.67
2022-12-02T02:50:57.348Z,88.10
2022-12-02T02:53:28.429Z,88.12
2022-12-02T02:55:57.038Z,87.72
2022-12-02T02:58:27.189Z,87.50
2022-12-02T03:00:59.316Z,87.40
2022-12-02T03:03:30.280Z,88.06
2022-12-02T03:06:00.787Z,87.55
2022-12-02T03:08:32.388Z,87.90
2022-12-02T03:11:02.630Z,88.17
2022-12-02T03:13:32.531Z,87.97
2022-12-02T03:16:02.241Z,87.84
2022-12-02T03:18:31.108Z,87.85
2022-12-02T03:21:00.652Z,88.00
2022-12-02T03:23:32.841Z,87.41
2022-12-02T03:26:02.844Z,88.10
2022-12-02T03:28:32.260Z,88.16
2022-12-02T03:31:01.310Z,88.34
2022-12-02T03:33:30.459Z,87.76
2022-12-02T03:35:58.869Z,87.85
2022-12-02T03:38:28.142Z,87.99
2022-12-02T03:40:57.844Z,87.92
2022-12-02T03:43:26.285Z,88.26
2022-12-02T03:45:54.910Z,88.06
2022-12-02T03:48:25.128Z,87.81
2022-12-02T03:50:55.277Z,87.84
2022-12-02T03:53:24.175Z,88.15
2022-12-02T03:55:52.871Z,87.63
2022-12-02T03:58:34.145Z,87.77
2022-12-02T04:01:02.589Z,87.65
2022-12-02T04:03:30.987Z,87.81
2022-12-02T04:05:59.401Z,88.54
2022-12-02T04:08:28.002Z,88.02
2022-12-02T04:10:56.343Z,88.34
2022-12-02T04:13:26.079Z,88.18
2022-12-02T04:15:54.535Z,88.12
2022-12-02T04:18:23.089Z,88.28
2022-12-02T04:20:51.552Z,88.34
2022-12-02T04:23:20.428Z,88.16
2022-12-02T04:25:48.788Z,88.47
2022-12-02T04:28:17.186Z,88.07
2022-12-02T04:30:46.962Z,88.40
2022-12-02T04:33:15.321Z,88.48
2022-12-02T04:35:43.700Z,88.56
2022-12-02T04:38:12.655Z,88.22
2022-12-02T04:40:41.252Z,88.22
2022-12-02T04:43:09.676Z,88.69
2022-12-02T04:45:38.059Z,88.60
2022-12-02T04:48:07.919Z,88.42
2022-12-02T04:50:36.546Z,88.25
2022-12-02T04:53:04.865Z,88.21
2022-12-02T04:55:33.260Z,88.12
2022-12-02T04:58:01.644Z,88.13
2022-12-02T05:00:30.099Z,88.53
2022-12-02T05:02:58.486Z,88.35
2022-12-02T05:05:28.252Z,88.66
2022-12-02T05:07:56.662Z,88.34
2022-12-02T05:10:25.112Z,88.61
2022-12-02T05:12:53.655Z,88.43
2022-12-02T05:15:22.063Z,88.42
2022-12-02T05:17:55.685Z,88.58
2022-12-02T05:20:24.079Z,88.40
2022-12-02T05:22:53.869Z,88.74
2022-12-02T05:25:22.156Z,88.34
2022-12-02T05:27:50.539Z,88.57
2022-12-02T05:30:19.028Z,88.42
2022-12-02T05:32:47.337Z,88.46
2022-12-02T05:35:15.876Z,88.54
2022-12-02T05:37:44.188Z,88.95
2022-12-02T05:40:14.272Z,88.35
2022-12-02T05:42:43.458Z,88.40
2022-12-02T05:45:17.476Z,88.87
2022-12-02T05:47:50.503Z,88.83
2022-12-02T05:50:18.976Z,88.47
2022-12-02T05:52:49.196Z,88.59
2022-12-02T05:55:21.283Z,88.43
2022-12-02T05:57:50.436Z,88.97
2022-12-02T06:00:20.334Z,88.91
2022-12-02T06:02:51.528Z,88.58
2022-12-02T06:05:23.547Z,89.00
2022-12-02T06:07:55.090Z,89.30
2022-12-02T06:10:28.038Z,88.75
2022-12-02T06:12:59.439Z,89.11
2022-12-02T06:15:31.840Z,89.03
2022-12-02T06:18:00.244Z,88.82
2022-12-02T06:20:34.725Z,88.64
2022-12-02T06:23:04.095Z,88.81
2022-12-02T06:25:34.108Z,88.95
2022-12-02T06:28:11.359Z,88.64
2022-12-02T06:30:41.326Z,88.61
2022-12-02T06:33:22.662Z,88.87
2022-12-02T06:35:52.437Z,88.73
2022-12-02T06:38:29.156Z,88.90
2022-12-02T06:41:01.646Z,88.32
2022-12-02T06:43:32.111Z,88.62
2022-12-02T06:46:00.565Z,89.04
2022-12-02T06:48:32.785Z,88.85
2022-12-02T06:51:12.052Z,88.78
2022-12-02T06:53:41.684Z,88.69
2022-12-02T06:56:23.411Z,88.71
2022-12-02T06:58:58.666Z,88.93
2022-12-02T07:01:38.753Z,88.73
2022-12-02T07:04:33.510Z,88.98
2022-12-02T07:07:13.434Z,88.92
2022-12-02T07:09:45.455Z,88.46
2022-12-02T07:12:19.750Z,88.92
2022-12-02T07:14:51.231Z,88.85
2022-12-02T07:17:26.238Z,88.29
2022-12-02T07:20:01.825Z,88.38
2022-12-02T07:22:36.975Z,88.30
2022-12-02T07:25:33.586Z,88.73
2022-12-02T07:28:24.008Z,88.31
2022-12-02T07:30:57.951Z,88.21
2022-12-02T07:33:26.279Z,88.32
2022-12-02T07:35:54.643Z,88.16
2022-12-02T07:38:43.017Z,88.14
2022-12-02T07:41:11.832Z,88.64
2022-12-02T07:43:41.576Z,88.30
2022-12-02T07:46:10.185Z,88.51
2022-12-02T07:48:38.552Z,88.04
2022-12-02T07:51:07.421Z,88.71
2022-12-02T07:53:35.769Z,88.84
2022-12-02T07:56:05.131Z,88.77
2022-12-02T07:59:03.425Z,88.81
2022-12-02T08:01:24.231Z,89.07
2022-12-02T08:03:52.646Z,88.61
2022-12-02T08:06:21.043Z,88.70
2022-12-02T08:08:49.877Z,89.00
2022-12-02T08:11:18.254Z,88.62
2022-12-02T08:13:46.646Z,89.00
2022-12-02T08:16:15.070Z,88.58
2022-12-02T08:18:45.115Z,89.18
2022-12-02T08:21:13.441Z,88.37
2022-12-02T08:23:41.800Z,88.66
2022-12-02T08:26:10.136Z,88.79
2022-12-02T08:28:38.545Z,88.51
2022-12-02T08:31:07.324Z,88.73
2022-12-02T08:33:35.727Z,89.13
2022-12-02T08:36:05.863Z,88.81
2022-12-02T08:38:34.573Z,88.89
2022-12-02T08:41:03.023Z,88.83
2022-12-02T08:43:31.370Z,89.27
2022-12-02T08:45:59.811Z,89.16
2022-12-02T08:48:28.300Z,89.15
2022-12-02T08:50:56.620Z,88.79
2022-12-02T08:53:26.603Z,89.21
2022-12-02T08:55:54.917Z,89.44
2022-12-02T08:58:23.282Z,89.04
2022-12-02T09:00:51.825Z,88.82
2022-12-02T09:03:20.146Z,89.39
2022-12-02T09:05:48.515Z,89.32
2022-12-02T09:08:16.944Z,89.31
2022-12-02T09:10:47.886Z,88.91
2022-12-02T09:13:16.277Z,89.41
2022-12-02T09:15:44.584Z,88.97
2022-12-02T09:18:14.704Z,88.81
2022-12-02T09:20:43.391Z,89.07
2022-12-02T09:23:13.112Z,89.18
2022-12-02T09:25:41.519Z,88.78
2022-12-02T09:28:11.401Z,88.73
2022-12-02T09:30:40.034Z,88.85
2022-12-02T09:33:08.384Z,89.18
2022-12-02T09:35:36.734Z,89.03
2022-12-02T09:38:06.555Z,89.16
2022-12-02T09:40:35.717Z,88.77
2022-12-02T09:43:05.836Z,89.29
2022-12-02T09:45:35.978Z,89.34
2022-12-02T09:48:04.754Z,89.54
2022-12-02T09:50:33.137Z,89.64
2022-12-02T09:53:06.588Z,89.76
2022-12-02T09:55:37.324Z,89.48
2022-12-02T09:58:13.660Z,89.87
2022-12-02T10:00:44.063Z,90.20
2022-12-02T10:03:18.908Z,90.11
2022-12-02T10:05:48.199Z,89.85
2022-12-02T10:08:21.022Z,89.80
2022-12-02T10:10:50.147Z,89.75
2022-12-02T10:13:20.773Z,89.69
2022-12-02T10:15:50.752Z,90.22
2022-12-02T10:18:21.168Z,90.39
2022-12-02T10:20:50.431Z,90.45
2022-12-02T10:23:20.523Z,89.87
2022-12-02T10:25:50.840Z,90.61
2022-12-02T10:28:26.272Z,90.13
2022-12-02T10:30:58.531Z,90.31
2022-12-02T10:33:29.036Z,90.25
2022-12-02T10:35:59.850Z,90.19
2022-12-02T10:38:32.328Z,89.75
2022-12-02T10:41:28.897Z,90.13
2022-12-02T10:44:14.005Z,89.70
2022-12-02T10:46:44.265Z,89.77
2022-12-02T10:49:28.471Z,89.51
2022-12-02T10:52:02.647Z,89.79
2022-12-02T10:54:36.782Z,89.90
2022-12-02T10:57:14.393Z,90.02
2022-12-02T10:59:42.945Z,89.72
2022-12-02T11:02:24.043Z,89.88
2022-12-02T11:04:53.651Z,89.55
2022-12-02T11:07:25.178Z,89.50
2022-12-02T11:09:55.618Z,89.16
2022-12-02T11:12:32.005Z,89.59
2022-12-02T11:15:00.649Z,89.71
2022-12-02T11:17:51.536Z,89.35
2022-12-02T11:20:32.861Z,89.25
2022-12-02T11:23:23.948Z,89.36
2022-12-02T11:26:00.817Z,89.27
2022-12-02T11:28:48.639Z,89.34
2022-12-02T11:31:25.282Z,88.85
2022-12-02T11:34:06.519Z,89.07
2022-12-02T11:36:36.880Z,88.52
2022-12-02T11:39:07.852Z,89.11
2022-12-02T11:42:22.505Z,89.07
2022-12-02T11:44:51.279Z,88.43
2022-12-02T11:47:34.074Z,88.62
2022-12-02T11:50:23.228Z,88.31
2022-12-02T11:52:54.047Z,88.95
2022-12-02T11:55:26.142Z,88.85
2022-12-02T11:57:56.780Z,88.90
2022-12-02T12:00:34.078Z,88.84
2022-12-02T12:03:16.195Z,88.75
2022-12-02T12:06:07.574Z,88.98
2022-12-02T12:08:36.540Z,88.73
2022-12-02T12:11:23.327Z,88.39
2022-12-02T12:14:02.808Z,88.95
2022-12-02T12:16:33.529Z,88.83
2022-12-02T12:19:27.055Z,88.49
2022-12-02T12:21:58.719Z,88.35
2022-12-02T12:24:34.738Z,88.39
2022-12-02T12:27:34.747Z,88.58
2022-12-02T12:30:03.525Z,88.66
2022-12-02T12:32:32.156Z,88.25
2022-12-02T12:35:00.738Z,88.50
2022-12-02T12:37:30.456Z,88.41
2022-12-02T12:39:58.765Z,88.51
2022-12-02T12:42:27.104Z,88.45
2022-12-02T12:44:55.453Z,87.92
2022-12-02T12:47:23.864Z,88.54
2022-12-02T12:49:52.276Z,88.15
2022-12-02T12:52:20.754Z,88.59
2022-12-02T12:54:51.213Z,88.42
2022-12-02T12:57:20.643Z,88.22
2022-12-02T12:59:49.524Z,87.81
2022-12-02T13:02:18.410Z,88.28
2022-12-02T13:04:46.844Z,88.53
2022-12-02T13:07:15.224Z,88.19
2022-12-02T13:09:43.621Z,88.10
2022-12-02T13:12:13.471Z,87.90
2022-12-02T13:14:41.975Z,88.04
2022-12-02T13:17:10.404Z,88.34
2022-12-02T13:19:38.819Z,87.80
2022-12-02T13:22:08.108Z,87.82
2022-12-02T13:24:42.650Z,87.76
2022-12-02T13:27:12.993Z,88.14
2022-12-02T13:29:41.851Z,87.33
2022-12-02T13:32:10.260Z,87.53
2022-12-02T13:34:38.828Z,87.60
2022-12-02T13:37:07.167Z,87.92
2022-12-02T13:39:35.752Z,87.35
2022-12-02T13:42:04.461Z,87.82
2022-12-02T13:44:34.179Z,87.41
2022-12-02T13:47:02.513Z,87.96
2022-12-02T13:49:30.850Z,87.70
2022-12-02T13:51:59.617Z,87.78
2022-12-02T13:54:28.204Z,87.74
2022-12-02T13:56:56.610Z,88.28
2022-12-02T13:59:25.212Z,87.96
2022-12-02T14:01:55.056Z,88.24
2022-12-02T14:04:23.436Z,88.09
2022-12-02T14:06:51.900Z,87.71
2022-12-02T14:09:20.348Z,87.79
2022-12-02T14:11:48.711Z,88.23
2022-12-02T14:14:17.025Z,88.16
2022-12-02T14:16:46.243Z,87.71
2022-12-02T14:19:16.010Z,87.96
2022-12-02T14:21:44.411Z,87.87
2022-12-02T14:24:12.839Z,87.75
2022-12-02T14:26:41.198Z,88.01
2022-12-02T14:29:10.148Z,87.76
2022-12-02T14:31:38.611Z,87.88
2022-12-02T14:34:12.581Z,87.75
2022-12-02T14:36:43.834Z,88.07
2022-12-02T14:39:15.572Z,88.11
2022-12-02T14:41:43.906Z,87.80
2022-12-02T14:44:12.232Z,88.19
2022-12-02T14:46:45.466Z,87.93
2022-12-02T14:52:03.763Z,87.67
2022-12-02T14:54:32.126Z,87.52
2022-12-02T14:57:00.594Z,87.49
2022-12-02T14:59:29.025Z,88.11
2022-12-02T15:01:57.692Z,88.08
2022-12-02T15:04:28.742Z,87.78
2022-12-02T15:06:57.438Z,87.76
2022-12-02T15:09:27.922Z,87.90
2022-12-02T15:11:57.737Z,87.45
2022-12-02T15:14:26.480Z,87.76
2022-12-02T15:16:54.917Z,88.30
2022-12-02T15:19:23.352Z,87.66
2022-12-02T15:21:51.675Z,88.03
2022-12-02T15:24:20.022Z,87.98
2022-12-02T15:26:55.282Z,87.81
2022-12-02T15:29:24.183Z,87.77
2022-12-02T15:31:52.640Z,88.30
2022-12-02T15:34:21.050Z,87.53
2022-12-02T15:36:49.594Z,87.41
2022-12-02T15:39:18.043Z,87.40
2022-12-02T15:41:46.486Z,87.87
2022-12-02T15:44:16.220Z,87.92
2022-12-02T15:46:44.881Z,88.16
2022-12-02T15:49:13.225Z,88.10
2022-12-02T15:51:41.548Z,88.24
2022-12-02T15:54:09.923Z,87.90
2022-12-02T15:56:38.255Z,87.93
2022-12-02T15:59:07.005Z,87.84
2022-12-02T16:01:36.892Z,87.85
2022-12-02T16:04:05.656Z,88.12
2022-12-02T16:06:35.419Z,88.25
2022-12-02T16:09:03.805Z,88.50
2022-12-02T16:11:32.175Z,88.32
2022-12-02T16:14:00.739Z,88.48
2022-12-02T16:16:29.203Z,88.66
2022-12-02T16:18:59.088Z,88.13
2022-12-02T16:21:27.393Z,88.69
2022-12-02T16:23:55.711Z,88.32
2022-12-02T16:26:24.045Z,88.79
2022-12-02T16:28:52.684Z,88.21
2022-12-02T16:31:22.391Z,88.59
2022-12-02T16:33:51.453Z,88.99
2022-12-02T16:36:21.176Z,88.99
2022-12-02T16:38:49.553Z,88.55
2022-12-02T16:41:17.893Z,88.60
2022-12-02T16:43:46.282Z,88.95
2022-12-02T16:46:14.750Z,88.31
2022-12-02T16:48:43.199Z,88.23
2022-12-02T16:51:11.773Z,88.23
2022-12-02T16:53:41.704Z,88.09
2022-12-02T16:56:10.100Z,88.72
2022-12-02T16:58:38.547Z,88.62
2022-12-02T17:01:07.669Z,87.99
2022-12-02T17:03:36.123Z,88.15
2022-12-02T17:06:04.682Z,88.01
2022-12-02T17:08:32.979Z,88.38
2022-12-02T17:11:02.730Z,88.53
2022-12-02T17:13:31.957Z,88.13
2022-12-02T17:16:00.515Z,88.23
2022-12-02T17:18:28.886Z,88.71
2022-12-02T17:20:57.168Z,88.18
2022-12-02T17:23:25.573Z,88.41
2022-12-02T17:25:53.967Z,88.26
2022-12-02T17:28:23.846Z,88.24
2022-12-02T17:30:52.235Z,88.56
2022-12-02T17:33:20.596Z,88.15
2022-12-02T17:35:48.949Z,88.45
2022-12-02T17:38:17.395Z,88.19
2022-12-02T17:40:45.783Z,87.87
2022-12-02T17:43:14.151Z,88.04
2022-12-02T17:45:43.988Z,88.49
2022-12-02T17:48:12.404Z,87.93
2022-12-02T17:50:40.768Z,87.88
2022-12-02T17:53:09.171Z,87.92
2022-12-02T17:55:37.523Z,87.81
2022-12-02T17:58:06.047Z,88.34
2022-12-02T18:00:34.394Z,88.33
2022-12-02T18:03:04.160Z,87.92
2022-12-02T18:05:32.530Z,87.67
2022-12-02T18:08:01.148Z,88.11
2022-12-02T18:10:29.566Z,88.43
2022-12-02T18:12:59.492Z,87.91
2022-12-02T18:15:27.852Z,87.71
2022-12-02T18:17:56.303Z,87.87
2022-12-02T18:20:26.270Z,88.27
2022-12-02T18:22:54.721Z,88.44
2022-12-02T18:25:23.152Z,87.96
2022-12-02T18:27:51.583Z,88.53
2022-12-02T18:30:19.934Z,87.98
2022-12-02T18:32:49.040Z,88.32
2022-12-02T18:35:17.982Z,88.33
2022-12-02T18:37:48.028Z,88.31
2022-12-02T18:40:18.114Z,88.31
2022-12-02T18:42:47.519Z,88.12
2022-12-02T18:45:16.553Z,87.92
2022-12-02T18:47:44.942Z,88.50
2022-12-02T18:50:14.684Z,88.10
2022-12-02T18:52:43.600Z,88.17
2022-12-02T18:55:15.436Z,88.15
2022-12-02T18:57:43.945Z,87.91
2022-12-02T19:00:14.869Z,88.15
2022-12-02T19:02:43.346Z,87.88
2022-12-02T19:05:11.995Z,88.28
2022-12-02T19:07:40.372Z,87.85
2022-12-02T19:10:09.486Z,88.24
2022-12-02T19:12:39.819Z,87.90
2022-12-02T19:15:08.938Z,88.28
2022-12-02T19:17:38.615Z,88.20
2022-12-02T19:20:08.280Z,88.28
2022-12-02T19:22:36.767Z,88.05
2022-12-02T19:25:05.595Z,87.85
2022-12-02T19:27:56.999Z,88.38
2022-12-02T19:30:23.774Z,88.49
2022-12-02T19:32:52.163Z,87.94
2022-12-02T19:35:20.500Z,87.77
2022-12-02T19:37:48.944Z,88.42
2022-12-02T19:40:17.409Z,88.12
2022-12-02T19:42:55.740Z,88.15
2022-12-02T19:45:25.685Z,88.18
2022-12-02T19:47:54.061Z,88.11
2022-12-02T19:50:22.408Z,87.87
2022-12-02T19:52:51.736Z,88.00
2022-12-02T19:55:20.080Z,88.06
2022-12-02T19:57:48.695Z,87.82
2022-12-02T20:00:18.932Z,88.42
2022-12-02T20:02:48.789Z,88.41
2022-12-02T20:05:21.278Z,87.98
2022-12-02T20:07:50.448Z,88.66
2022-12-02T20:10:19.216Z,88.37
2022-12-02T20:12:47.759Z,88.34
2022-12-02T20:15:17.118Z,88.03
2022-12-02T20:17:45.934Z,88.00
2022-12-02T20:20:16.564Z,88.25
2022-12-02T20:22:45.577Z,87.99
2022-12-02T20:25:13.971Z,88.42
2022-12-02T20:27:42.353Z,88.16
2022-12-02T20:30:11.434Z,88.01
2022-12-02T20:32:39.916Z,88.45
2022-12-02T20:35:08.894Z,88.03
2022-12-02T20:37:40.993Z,87.97
2022-12-02T20:40:11.256Z,88.17
2022-12-02T20:42:39.883Z,88.49
2022-12-02T20:45:10.378Z,88.14
2022-12-02T20:47:39.053Z,88.42
2022-12-02T20:50:08.855Z,88.50
2022-12-02T20:52:38.819Z,88.28
2022-12-02T20:55:08.082Z,88.10
2022-12-02T20:57:36.487Z,88.02
2022-12-02T21:00:06.003Z,88.36
2022-12-02T21:02:34.710Z,88.34
2022-12-02T21:05:03.153Z,88.14
2022-12-02T21:07:32.002Z,88.11
2022-12-02T21:10:01.702Z,88.32
2022-12-02T21:12:30.915Z,88.61
2022-12-02T21:14:59.351Z,88.48
2022-12-02T21:17:30.246Z,88.51
2022-12-02T21:19:58.856Z,88.53
2022-12-02T21:22:27.219Z,88.55
2022-12-02T21:24:55.831Z,88.71
2022-12-02T21:27:25.969Z,88.44
2022-12-02T21:29:54.356Z,88.86
2022-12-02T21:32:22.845Z,88.69
2022-12-02T21:34:51.739Z,88.45
2022-12-02T21:37:20.212Z,88.51
2022-12-02T21:39:49.651Z,88.41
2022-12-02T21:42:17.991Z,88.45
2022-12-02T21:44:47.767Z,88.79
2022-12-02T21:47:16.246Z,88.74
2022-12-02T21:49:49.199Z,88.81
2022-12-02T21:52:18.423Z,88.55
2022-12-02T21:54:47.045Z,88.11
2022-12-02T21:57:15.476Z,88.48
2022-12-02T21:59:44.142Z,88.37
2022-12-02T22:02:15.109Z,88.72
2022-12-02T22:04:45.386Z,88.36
2022-12-02T22:07:31.429Z,88.86
2022-12-02T22:09:59.920Z,88.33
2022-12-02T22:12:28.246Z,88.73
2022-12-02T22:14:56.587Z,88.76
2022-12-02T22:17:26.282Z,89.01
2022-12-02T22:19:54.693Z,88.49
2022-12-02T22:22:22.992Z,88.33
2022-12-02T22:24:51.737Z,88.34
2022-12-02T22:27:20.713Z,88.26
2022-12-02T22:29:49.124Z,88.31
2022-12-02T22:32:17.696Z,88.44
2022-12-02T22:34:47.618Z,88.25
2022-12-02T22:37:16.243Z,88.01
2022-12-02T22:39:44.792Z,88.29
2022-12-02T22:42:13.287Z,87.91
2022-12-02T22:44:41.611Z,88.25
2022-12-02T22:47:09.953Z,87.97
2022-12-02T22:49:38.451Z,88.13
2022-12-02T22:52:08.520Z,88.39
2022-12-02T22:54:36.864Z,87.90
2022-12-02T22:57:05.296Z,87.81
2022-12-02T22:59:33.686Z,88.21
2022-12-02T23:02:02.131Z,87.81
2022-12-02T23:04:30.544Z,88.06
2022-12-02T23:06:58.867Z,87.95
2022-12-02T23:09:29.356Z,87.96
2022-12-02T23:11:57.725Z,87.80
2022-12-02T23:14:26.111Z,87.95
2022-12-02T23:16:54.496Z,88.06
2022-12-02T23:19:23.007Z,88.05
2022-12-02T23:21:51.381Z,87.72
2022-12-02T23:24:20.212Z,87.84
2022-12-02T23:26:50.023Z,87.79
2022-12-02T23:29:18.436Z,88.13
2022-12-02T23:31:46.757Z,87.60
2022-12-02T23:34:15.435Z,87.87
2022-12-02T23:36:43.831Z,87.96
2022-12-02T23:39:12.163Z,87.63
2022-12-02T23:41:40.469Z,87.77
2022-12-02T23:44:10.197Z,88.03
2022-12-02T23:46:38.712Z,87.76
2022-12-02T23:49:07.123Z,87.80
2022-12-02T23:51:35.430Z,87.82
2022-12-02T23:54:03.855Z,87.58
2022-12-02T23:56:32.205Z,87.87
2022-12-02T23:59:00.816Z,87.70
